createdAt,value
2022-08-21T00:00:54.144Z,69.34
2022-08-21T00:02:01.301Z,69.45
2022-08-21T00:02:54.167Z,69.65
2022-08-21T00:03:54.127Z,69.85
2022-08-21T00:04:56.943Z,69.95
2022-08-21T00:05:54.065Z,69.95
2022-08-21T00:06:54.043Z,70.05
2022-08-21T00:07:54.052Z,70.36
2022-08-21T00:08:54.044Z,70.46
2022-08-21T00:09:54.031Z,70.36
2022-08-21T00:10:53.994Z,70.46
2022-08-21T00:11:53.993Z,70.46
2022-08-21T00:12:54.000Z,70.36
2022-08-21T00:13:53.982Z,70.46
2022-08-21T00:14:57.225Z,70.56
2022-08-21T00:15:53.945Z,70.46
2022-08-21T00:17:00.188Z,70.46
2022-08-21T00:17:54.914Z,70.25
2022-08-21T00:18:53.904Z,70.15
2022-08-21T00:19:53.893Z,70.15
2022-08-21T00:20:53.865Z,70.36
2022-08-21T00:21:53.865Z,70.36
2022-08-21T00:22:53.845Z,70.29
2022-08-21T00:23:53.854Z,70.39
2022-08-21T00:24:53.819Z,70.79
2022-08-21T00:25:53.816Z,71.00
2022-08-21T00:26:53.778Z,71.20
2022-08-21T00:27:53.794Z,71.33
2022-08-21T00:28:53.776Z,71.33
2022-08-21T00:29:53.757Z,71.23
2022-08-21T00:30:53.737Z,71.23
2022-08-21T00:31:53.726Z,71.13
2022-08-21T00:32:53.710Z,71.03
2022-08-21T00:33:59.356Z,70.93
2022-08-21T00:34:54.737Z,70.83
2022-08-21T00:35:53.677Z,70.83
2022-08-21T00:36:53.666Z,71.03
2022-08-21T00:37:53.649Z,71.03
2022-08-21T00:38:53.639Z,71.03
2022-08-21T00:39:53.676Z,71.13
2022-08-21T00:40:53.617Z,71.13
2022-08-21T00:41:53.599Z,71.23
2022-08-21T00:42:53.999Z,71.23
2022-08-21T00:43:53.567Z,71.23
2022-08-21T00:44:53.575Z,71.23
2022-08-21T00:45:53.553Z,71.23
2022-08-21T00:46:53.528Z,71.33
2022-08-21T00:47:53.523Z,71.33
2022-08-21T00:48:53.507Z,71.23
2022-08-21T00:49:53.499Z,71.13
2022-08-21T00:50:53.480Z,71.03
2022-08-21T00:51:53.479Z,71.23
2022-08-21T00:52:53.478Z,71.16
2022-08-21T00:53:53.829Z,71.16
2022-08-21T00:54:53.427Z,71.26
2022-08-21T00:55:53.417Z,71.37
2022-08-21T00:56:53.405Z,71.26
2022-08-21T00:57:53.391Z,71.06
2022-08-21T00:58:55.035Z,71.06
2022-08-21T00:59:53.389Z,71.06
2022-08-21T01:00:53.386Z,70.96
2022-08-21T01:01:53.330Z,70.96
2022-08-21T01:02:53.320Z,70.76
2022-08-21T01:03:53.321Z,70.86
2022-08-21T01:04:53.319Z,71.06
2022-08-21T01:05:53.303Z,71.26
2022-08-21T01:06:53.273Z,71.37
2022-08-21T01:07:53.276Z,71.57
2022-08-21T01:08:53.262Z,71.40
2022-08-21T01:09:53.261Z,71.40
2022-08-21T01:10:54.781Z,71.40
2022-08-21T01:11:53.225Z,71.50
2022-08-21T01:12:53.205Z,71.70
2022-08-21T01:13:53.194Z,71.70
2022-08-21T01:14:53.208Z,71.70
2022-08-21T01:15:53.164Z,71.80
2022-08-21T01:16:53.156Z,71.91
2022-08-21T01:17:53.147Z,72.21
2022-08-21T01:18:53.138Z,72.24
2022-08-21T01:19:53.137Z,72.45
2022-08-21T01:20:53.106Z,72.21
2022-08-21T01:21:53.085Z,72.11
2022-08-21T01:22:53.078Z,71.80
2022-08-21T01:23:53.067Z,71.80
2022-08-21T01:24:53.077Z,71.91
2022-08-21T01:25:53.029Z,71.91
2022-08-21T01:26:53.030Z,72.01
2022-08-21T01:27:53.014Z,72.01
2022-08-21T01:28:52.998Z,72.11
2022-08-21T01:29:52.987Z,72.11
2022-08-21T01:30:52.987Z,72.11
2022-08-21T01:31:52.956Z,71.91
2022-08-21T01:32:52.946Z,71.80
2022-08-21T01:33:52.938Z,71.91
2022-08-21T01:34:52.937Z,72.01
2022-08-21T01:35:52.906Z,72.01
2022-08-21T01:36:52.928Z,72.21
2022-08-21T01:37:52.881Z,72.31
2022-08-21T01:38:52.867Z,72.55
2022-08-21T01:39:52.920Z,72.55
2022-08-21T01:40:52.837Z,72.75
2022-08-21T01:41:52.826Z,72.96
2022-08-21T01:42:52.818Z,73.05
2022-08-21T01:43:52.795Z,73.05
2022-08-21T01:44:56.163Z,73.05
2022-08-21T01:45:52.779Z,72.96
2022-08-21T01:46:52.760Z,72.75
2022-08-21T01:47:52.739Z,72.61
2022-08-21T01:48:52.731Z,72.41
2022-08-21T01:49:52.731Z,72.41
2022-08-21T01:50:52.868Z,72.31
2022-08-21T01:51:52.690Z,72.55
2022-08-21T01:52:52.687Z,72.45
2022-08-21T01:53:52.679Z,72.45
2022-08-21T01:54:55.504Z,72.45
2022-08-21T01:55:52.629Z,72.45
2022-08-21T01:56:52.627Z,72.34
2022-08-21T01:57:52.618Z,72.24
2022-08-21T01:58:52.610Z,72.14
2022-08-21T01:59:52.609Z,72.24
2022-08-21T02:00:52.630Z,72.24
2022-08-21T02:01:52.560Z,72.24
2022-08-21T02:02:52.569Z,72.24
2022-08-21T02:03:52.538Z,72.34
2022-08-21T02:04:52.561Z,72.45
2022-08-21T02:05:52.511Z,72.55
2022-08-21T02:06:52.495Z,72.55
2022-08-21T02:07:52.480Z,72.65
2022-08-21T02:08:52.470Z,72.78
2022-08-21T02:09:52.450Z,72.89
2022-08-21T02:10:52.461Z,72.89
2022-08-21T02:11:52.431Z,72.99
2022-08-21T02:12:52.419Z,72.99
2022-08-21T02:13:52.436Z,73.09
2022-08-21T02:14:52.400Z,73.09
2022-08-21T02:15:52.391Z,73.09
2022-08-21T02:16:52.364Z,73.19
2022-08-21T02:17:53.343Z,73.43
2022-08-21T02:18:52.340Z,73.63
2022-08-21T02:19:52.333Z,73.73
2022-08-21T02:20:55.859Z,73.83
2022-08-21T02:21:52.292Z,73.73
2022-08-21T02:22:52.288Z,73.73
2022-08-21T02:23:52.272Z,73.73
2022-08-21T02:24:54.518Z,73.83
2022-08-21T02:25:52.261Z,73.63
2022-08-21T02:26:52.234Z,73.63
2022-08-21T02:27:52.212Z,73.63
2022-08-21T02:28:52.205Z,73.66
2022-08-21T02:29:52.184Z,73.87
2022-08-21T02:30:52.192Z,73.87
2022-08-21T02:31:52.169Z,73.87
2022-08-21T02:32:52.272Z,74.07
2022-08-21T02:33:52.137Z,74.17
2022-08-21T02:34:52.140Z,74.27
2022-08-21T02:35:52.160Z,74.38
2022-08-21T02:36:59.415Z,74.48
2022-08-21T02:37:53.084Z,74.58
2022-08-21T02:38:52.077Z,74.48
2022-08-21T02:39:52.089Z,74.27
2022-08-21T02:40:52.062Z,74.27
2022-08-21T02:41:52.022Z,74.27
2022-08-21T02:42:52.107Z,74.38
2022-08-21T02:43:52.002Z,74.38
2022-08-21T02:44:51.998Z,74.27
2022-08-21T02:45:52.019Z,74.17
2022-08-21T02:46:51.997Z,74.27
2022-08-21T02:47:51.946Z,74.58
2022-08-21T02:48:51.924Z,74.58
2022-08-21T02:49:51.922Z,74.78
2022-08-21T02:50:51.935Z,74.58
2022-08-21T02:51:51.895Z,74.27
2022-08-21T02:52:51.974Z,74.17
2022-08-21T02:53:51.874Z,73.97
2022-08-21T02:54:51.863Z,73.87
2022-08-21T02:55:51.855Z,73.87
2022-08-21T02:56:51.834Z,73.77
2022-08-21T02:57:51.814Z,73.63
2022-08-21T02:58:51.796Z,73.57
2022-08-21T02:59:51.775Z,73.66
2022-08-21T03:00:51.794Z,73.87
2022-08-21T03:01:51.846Z,73.97
2022-08-21T03:02:51.792Z,74.27
2022-08-21T03:03:51.735Z,74.51
2022-08-21T03:04:51.722Z,74.71
2022-08-21T03:05:51.718Z,74.92
2022-08-21T03:06:51.694Z,74.92
2022-08-21T03:07:51.686Z,75.02
2022-08-21T03:08:51.710Z,75.12
2022-08-21T03:09:56.029Z,75.12
2022-08-21T03:10:51.695Z,75.12
2022-08-21T03:11:51.635Z,75.12
2022-08-21T03:12:51.721Z,75.26
2022-08-21T03:13:51.612Z,75.46
2022-08-21T03:14:51.596Z,75.70
2022-08-21T03:15:51.574Z,76.01
2022-08-21T03:16:51.586Z,76.31
2022-08-21T03:17:51.556Z,76.31
2022-08-21T03:18:51.547Z,76.21
2022-08-21T03:19:51.523Z,76.01
2022-08-21T03:20:51.516Z,76.01
2022-08-21T03:21:51.515Z,75.90
2022-08-21T03:22:51.487Z,76.01
2022-08-21T03:23:51.474Z,76.10
2022-08-21T03:24:51.456Z,76.21
2022-08-21T03:25:51.447Z,76.21
2022-08-21T03:26:51.447Z,76.01
2022-08-21T03:27:52.640Z,76.01
2022-08-21T03:28:51.432Z,76.10
2022-08-21T03:29:51.401Z,75.90
2022-08-21T03:30:51.389Z,75.70
2022-08-21T03:31:51.379Z,75.80
2022-08-21T03:32:51.409Z,76.01
2022-08-21T03:33:51.338Z,76.01
2022-08-21T03:34:51.332Z,76.21
2022-08-21T03:35:51.308Z,76.31
2022-08-21T03:36:51.317Z,76.31
2022-08-21T03:37:51.500Z,76.21
2022-08-21T03:38:51.792Z,76.21
2022-08-21T03:39:51.289Z,76.31
2022-08-21T03:40:51.278Z,76.31
2022-08-21T03:41:51.288Z,76.21
2022-08-21T03:42:51.269Z,76.31
2022-08-21T03:43:51.237Z,76.41
2022-08-21T03:44:51.819Z,76.31
2022-08-21T03:45:52.545Z,76.10
2022-08-21T03:46:51.189Z,76.51
2022-08-21T03:47:51.573Z,76.41
2022-08-21T03:48:51.915Z,76.31
2022-08-21T03:49:51.137Z,76.10
2022-08-21T03:50:51.657Z,76.10
2022-08-21T03:51:59.134Z,76.21
2022-08-21T03:52:52.088Z,76.51
2022-08-21T03:53:51.242Z,76.31
2022-08-21T03:54:51.080Z,76.31
2022-08-21T03:55:51.046Z,76.31
2022-08-21T03:56:51.409Z,76.31
2022-08-21T03:57:51.099Z,76.31
2022-08-21T03:58:51.079Z,76.41
2022-08-21T03:59:51.561Z,76.51
2022-08-21T04:00:51.373Z,76.61
2022-08-21T04:01:51.085Z,76.92
2022-08-21T04:02:50.960Z,77.33
2022-08-21T04:03:50.960Z,77.63
2022-08-21T04:04:51.280Z,77.83
2022-08-21T04:05:50.910Z,77.83
2022-08-21T04:06:51.616Z,77.53
2022-08-21T04:07:51.515Z,77.43
2022-08-21T04:08:51.270Z,77.43
2022-08-21T04:09:51.413Z,77.53
2022-08-21T04:10:51.343Z,77.53
2022-08-21T04:11:51.429Z,77.53
2022-08-21T04:12:51.182Z,77.43
2022-08-21T04:13:50.961Z,77.53
2022-08-21T04:14:50.801Z,77.56
2022-08-21T04:15:50.961Z,77.47
2022-08-21T04:16:50.812Z,77.53
2022-08-21T04:17:50.791Z,77.63
2022-08-21T04:18:50.912Z,77.73
2022-08-21T04:19:53.788Z,77.87
2022-08-21T04:20:51.421Z,78.08
2022-08-21T04:21:52.645Z,77.87
2022-08-21T04:22:50.691Z,77.77
2022-08-21T04:23:50.681Z,77.63
2022-08-21T04:24:52.213Z,77.63
2022-08-21T04:25:50.652Z,77.22
2022-08-21T04:26:51.192Z,76.51
2022-08-21T04:27:52.187Z,76.10
2022-08-21T04:28:50.613Z,75.80
2022-08-21T04:29:51.443Z,75.60
2022-08-21T04:30:50.630Z,75.49
2022-08-21T04:31:50.827Z,75.49
2022-08-21T04:32:50.823Z,75.40
2022-08-21T04:33:51.293Z,75.60
2022-08-21T04:34:51.611Z,75.80
2022-08-21T04:35:50.691Z,76.01
2022-08-21T04:36:50.681Z,76.10
2022-08-21T04:37:50.668Z,76.10
2022-08-21T04:38:50.776Z,76.10
2022-08-21T04:39:53.522Z,76.01
2022-08-21T04:40:50.499Z,75.90
2022-08-21T04:41:50.435Z,75.90
2022-08-21T04:42:50.480Z,76.01
2022-08-21T04:43:50.919Z,76.25
2022-08-21T04:44:50.395Z,76.45
2022-08-21T04:45:50.384Z,76.45
2022-08-21T04:46:50.393Z,76.55
2022-08-21T04:47:52.507Z,76.55
2022-08-21T04:48:50.532Z,76.75
2022-08-21T04:49:50.356Z,76.75
2022-08-21T04:50:50.311Z,77.26
2022-08-21T04:51:50.302Z,77.56
2022-08-21T04:52:50.345Z,78.01
2022-08-21T04:53:51.484Z,78.41
2022-08-21T04:54:54.385Z,78.72
2022-08-21T04:55:50.312Z,79.02
2022-08-21T04:56:50.229Z,79.02
2022-08-21T04:57:50.232Z,78.99
2022-08-21T04:58:50.200Z,78.99
2022-08-21T04:59:50.212Z,79.09
2022-08-21T05:00:50.188Z,78.99
2022-08-21T05:01:50.227Z,79.09
2022-08-21T05:02:50.177Z,79.09
2022-08-21T05:03:50.143Z,79.09
2022-08-21T05:04:50.192Z,79.09
2022-08-21T05:05:50.144Z,79.09
2022-08-21T05:06:50.104Z,78.99
2022-08-21T05:07:50.115Z,78.99
2022-08-21T05:08:50.094Z,78.99
2022-08-21T05:09:50.054Z,78.99
2022-08-21T05:10:50.054Z,78.78
2022-08-21T05:11:50.040Z,78.24
2022-08-21T05:12:50.058Z,77.73
2022-08-21T05:13:50.026Z,77.33
2022-08-21T05:14:51.044Z,76.78
2022-08-21T05:15:49.994Z,76.07
2022-08-21T05:16:49.976Z,75.76
2022-08-21T05:17:53.655Z,75.36
2022-08-21T05:18:50.943Z,75.16
2022-08-21T05:19:49.938Z,75.05
2022-08-21T05:20:49.913Z,74.95
2022-08-21T05:21:49.905Z,74.85
2022-08-21T05:22:49.914Z,74.71
2022-08-21T05:23:49.886Z,74.62
2022-08-21T05:24:49.885Z,74.71
2022-08-21T05:25:49.861Z,74.71
2022-08-21T05:26:49.834Z,74.71
2022-08-21T05:27:49.847Z,74.71
2022-08-21T05:28:49.817Z,74.82
2022-08-21T05:29:49.805Z,74.82
2022-08-21T05:30:49.813Z,74.71
2022-08-21T05:31:49.769Z,74.62
2022-08-21T05:32:49.766Z,74.62
2022-08-21T05:33:49.757Z,74.62
2022-08-21T05:34:49.807Z,74.51
2022-08-21T05:35:49.735Z,74.68
2022-08-21T05:36:49.746Z,74.78
2022-08-21T05:37:49.725Z,74.78
2022-08-21T05:38:49.698Z,74.78
2022-08-21T05:40:20.702Z,74.78
2022-08-21T05:40:50.723Z,74.68
2022-08-21T05:41:49.666Z,74.58
2022-08-21T05:42:54.410Z,74.48
2022-08-21T05:43:50.619Z,74.38
2022-08-21T05:44:49.615Z,74.17
2022-08-21T05:45:49.591Z,74.38
2022-08-21T05:46:49.573Z,74.58
2022-08-21T05:47:49.587Z,74.58
2022-08-21T05:48:49.557Z,74.78
2022-08-21T05:49:49.540Z,74.88
2022-08-21T05:50:49.536Z,74.88
2022-08-21T05:51:49.527Z,74.88
2022-08-21T05:52:49.507Z,74.78
2022-08-21T05:53:49.491Z,74.58
2022-08-21T05:54:49.465Z,74.58
2022-08-21T05:55:49.459Z,74.68
2022-08-21T05:56:49.446Z,74.68
2022-08-21T05:57:49.473Z,74.68
2022-08-21T05:58:49.424Z,74.78
2022-08-21T05:59:49.400Z,74.78
2022-08-21T06:00:49.401Z,74.74
2022-08-21T06:01:49.416Z,74.54
2022-08-21T06:02:49.386Z,74.54
2022-08-21T06:03:57.224Z,74.65
2022-08-21T06:04:49.369Z,74.95
2022-08-21T06:05:49.324Z,74.95
2022-08-21T06:06:49.316Z,75.05
2022-08-21T06:07:49.359Z,75.15
2022-08-21T06:08:49.317Z,75.25
2022-08-21T06:09:49.314Z,75.25
2022-08-21T06:10:49.285Z,75.22
2022-08-21T06:11:49.300Z,75.12
2022-08-21T06:12:49.264Z,75.01
2022-08-21T06:13:49.245Z,74.91
2022-08-21T06:14:49.367Z,74.91
2022-08-21T06:15:49.193Z,74.81
2022-08-21T06:16:49.172Z,74.61
2022-08-21T06:17:49.207Z,74.37
2022-08-21T06:18:49.158Z,74.27
2022-08-21T06:19:49.149Z,74.27
2022-08-21T06:20:49.147Z,74.27
2022-08-21T06:21:49.114Z,74.37
2022-08-21T06:22:49.112Z,74.48
2022-08-21T06:23:49.104Z,74.37
2022-08-21T06:24:49.072Z,74.27
2022-08-21T06:25:49.065Z,74.37
2022-08-21T06:26:49.044Z,74.44
2022-08-21T06:27:49.073Z,74.33
2022-08-21T06:28:49.013Z,74.33
2022-08-21T06:29:49.005Z,74.13
2022-08-21T06:30:48.994Z,74.04
2022-08-21T06:31:48.976Z,74.24
2022-08-21T06:32:48.964Z,74.44
2022-08-21T06:33:49.173Z,74.33
2022-08-21T06:34:48.936Z,74.33
2022-08-21T06:35:48.926Z,74.33
2022-08-21T06:36:48.913Z,74.44
2022-08-21T06:37:48.896Z,74.44
2022-08-21T06:38:50.866Z,74.24
2022-08-21T06:39:48.958Z,74.10
2022-08-21T06:40:48.864Z,74.00
2022-08-21T06:41:48.846Z,74.10
2022-08-21T06:42:48.836Z,74.20
2022-08-21T06:43:48.836Z,74.40
2022-08-21T06:44:48.796Z,74.30
2022-08-21T06:45:48.794Z,74.16
2022-08-21T06:46:48.784Z,73.96
2022-08-21T06:47:48.767Z,73.76
2022-08-21T06:48:48.806Z,73.36
2022-08-21T06:49:48.746Z,73.02
2022-08-21T06:50:48.731Z,72.81
2022-08-21T06:51:48.717Z,73.12
2022-08-21T06:52:48.697Z,73.02
2022-08-21T06:53:48.707Z,73.02
2022-08-21T06:54:48.668Z,72.92
2022-08-21T06:55:48.665Z,72.81
2022-08-21T06:56:48.659Z,72.38
2022-08-21T06:57:50.831Z,71.97
2022-08-21T06:58:48.635Z,71.87
2022-08-21T06:59:48.615Z,72.08
2022-08-21T07:00:48.597Z,71.97
2022-08-21T07:01:48.620Z,71.97
2022-08-21T07:02:48.596Z,72.08
2022-08-21T07:03:48.579Z,71.73
2022-08-21T07:04:48.547Z,71.33
2022-08-21T07:05:48.527Z,71.03
2022-08-21T07:06:48.508Z,70.93
2022-08-21T07:07:48.516Z,71.13
2022-08-21T07:08:48.510Z,71.44
2022-08-21T07:09:48.499Z,71.84
2022-08-21T07:10:48.459Z,71.44
2022-08-21T07:11:48.457Z,71.53
2022-08-21T07:12:48.429Z,71.53
2022-08-21T07:13:48.446Z,71.73
2022-08-21T07:14:48.408Z,71.73
2022-08-21T07:15:48.400Z,71.30
2022-08-21T07:16:48.378Z,70.59
2022-08-21T07:17:48.379Z,70.09
2022-08-21T07:18:48.371Z,70.19
2022-08-21T07:19:48.349Z,70.39
2022-08-21T07:20:48.339Z,70.19
2022-08-21T07:21:48.319Z,69.58
2022-08-21T07:22:48.299Z,69.58
2022-08-21T07:23:48.312Z,69.28
2022-08-21T07:24:48.304Z,69.55
2022-08-21T07:25:48.280Z,69.55
2022-08-21T07:26:48.265Z,69.95
2022-08-21T07:27:48.254Z,70.15
2022-08-21T07:28:48.240Z,70.15
2022-08-21T07:29:48.219Z,70.26
2022-08-21T07:30:48.193Z,70.15
2022-08-21T07:31:48.200Z,70.12
2022-08-21T07:32:48.171Z,69.92
2022-08-21T07:33:48.171Z,69.92
2022-08-21T07:34:48.150Z,69.92
2022-08-21T07:35:48.140Z,69.42
2022-08-21T07:36:48.120Z,69.18
2022-08-21T07:37:48.107Z,69.28
2022-08-21T07:38:48.110Z,69.48
2022-08-21T07:39:48.120Z,69.38
2022-08-21T07:40:48.059Z,69.08
2022-08-21T07:41:48.052Z,68.95
2022-08-21T07:42:48.042Z,68.74
2022-08-21T07:43:48.041Z,68.95
2022-08-21T07:44:48.001Z,68.24
2022-08-21T07:45:48.002Z,67.74
2022-08-21T07:46:47.998Z,67.94
2022-08-21T07:47:47.972Z,68.14
2022-08-21T07:48:47.973Z,67.80
2022-08-21T07:49:47.951Z,67.71
2022-08-21T07:50:47.952Z,67.80
2022-08-21T07:51:47.923Z,67.60
2022-08-21T07:52:47.905Z,67.71
2022-08-21T07:53:47.902Z,68.18
2022-08-21T07:54:47.873Z,67.77
2022-08-21T07:55:47.871Z,67.54
2022-08-21T07:56:47.851Z,67.34
2022-08-21T07:57:47.844Z,66.91
2022-08-21T07:58:47.875Z,66.50
2022-08-21T07:59:47.919Z,66.27
2022-08-21T08:00:47.787Z,66.07
2022-08-21T08:01:47.793Z,65.53
2022-08-21T08:02:47.765Z,64.43
2022-08-21T08:03:47.772Z,64.53
2022-08-21T08:04:50.609Z,64.73
2022-08-21T08:05:47.724Z,64.60
2022-08-21T08:06:47.713Z,64.00
2022-08-21T08:07:47.703Z,64.10
2022-08-21T08:08:47.695Z,64.00
2022-08-21T08:09:47.674Z,63.56
2022-08-21T08:10:47.662Z,63.67
2022-08-21T08:11:47.653Z,63.76
2022-08-21T08:12:47.633Z,63.23
2022-08-21T08:13:47.644Z,62.93
2022-08-21T08:14:47.646Z,62.63
2022-08-21T08:15:47.597Z,62.23
2022-08-21T08:16:47.582Z,62.03
2022-08-21T08:17:47.573Z,63.06
2022-08-21T08:18:47.572Z,63.33
2022-08-21T08:19:47.552Z,63.33
2022-08-21T08:20:47.521Z,63.53
2022-08-21T08:21:47.514Z,63.43
2022-08-21T08:23:00.597Z,63.20
2022-08-21T08:23:48.565Z,62.90
2022-08-21T08:24:47.496Z,62.90
2022-08-21T08:25:47.466Z,62.57
2022-08-21T08:26:53.426Z,62.67
2022-08-21T08:27:48.447Z,62.47
2022-08-21T08:28:47.471Z,62.37
2022-08-21T08:29:47.431Z,61.97
2022-08-21T08:30:47.389Z,61.57
2022-08-21T08:31:47.377Z,61.54
2022-08-21T08:32:47.370Z,61.44
2022-08-21T08:33:47.372Z,61.64
2022-08-21T08:34:47.345Z,61.44
2022-08-21T08:35:47.321Z,61.34
2022-08-21T08:36:47.320Z,61.04
2022-08-21T08:37:52.192Z,60.71
2022-08-21T08:38:48.307Z,61.11
2022-08-21T08:39:47.303Z,60.91
2022-08-21T08:40:47.274Z,60.91
2022-08-21T08:41:47.274Z,60.71
2022-08-21T08:42:47.239Z,60.51
2022-08-21T08:43:47.239Z,60.21
2022-08-21T08:44:47.218Z,60.31
2022-08-21T08:45:47.189Z,60.61
2022-08-21T08:46:47.179Z,60.51
2022-08-21T08:47:47.168Z,60.48
2022-08-21T08:48:52.742Z,60.38
2022-08-21T08:49:48.138Z,60.28
2022-08-21T08:50:47.128Z,60.08
2022-08-21T08:51:47.118Z,60.18
2022-08-21T08:52:48.138Z,60.08
2022-08-21T08:53:47.099Z,60.18
2022-08-21T08:54:47.069Z,60.08
2022-08-21T08:55:47.071Z,60.18
2022-08-21T08:56:47.052Z,59.95
2022-08-21T08:57:48.647Z,60.05
2022-08-21T08:58:47.091Z,59.35
2022-08-21T08:59:47.032Z,60.15
2022-08-21T09:00:47.039Z,60.05
2022-08-21T09:01:47.025Z,59.95
2022-08-21T09:02:47.011Z,60.05
2022-08-21T09:03:46.977Z,59.95
2022-08-21T09:04:46.971Z,60.72
2022-08-21T09:05:46.928Z,60.12
2022-08-21T09:06:46.923Z,59.72
2022-08-21T09:07:46.901Z,59.62
2022-08-21T09:08:46.902Z,59.62
2022-08-21T09:09:46.882Z,58.99
2022-08-21T09:10:46.871Z,59.09
2022-08-21T09:11:46.850Z,58.99
2022-08-21T09:12:46.842Z,59.09
2022-08-21T09:13:46.851Z,58.80
2022-08-21T09:14:46.852Z,58.56
2022-08-21T09:15:46.794Z,58.17
2022-08-21T09:16:46.783Z,57.67
2022-08-21T09:17:46.772Z,57.67
2022-08-21T09:18:46.754Z,57.26
2022-08-21T09:19:46.764Z,57.26
2022-08-21T09:20:46.787Z,57.24
2022-08-21T09:21:46.744Z,57.14
2022-08-21T09:22:46.706Z,56.84
2022-08-21T09:23:46.695Z,56.14
2022-08-21T09:24:50.020Z,56.81
2022-08-21T09:25:47.661Z,55.91
2022-08-21T09:26:46.674Z,56.21
2022-08-21T09:27:46.654Z,55.32
2022-08-21T09:28:46.678Z,55.51
2022-08-21T09:29:46.625Z,54.22
2022-08-21T09:30:46.605Z,53.42
2022-08-21T09:31:46.587Z,51.92
2022-08-21T09:32:46.574Z,51.62
2022-08-21T09:33:46.555Z,54.32
2022-08-21T09:34:46.575Z,53.81
2022-08-21T09:35:46.527Z,54.02
2022-08-21T09:36:46.524Z,52.32
2022-08-21T09:37:46.517Z,51.59
2022-08-21T09:38:46.495Z,52.59
2022-08-21T09:39:48.751Z,52.79
2022-08-21T09:40:46.467Z,53.69
2022-08-21T09:41:46.446Z,52.89
2022-08-21T09:42:46.444Z,52.59
2022-08-21T09:43:46.416Z,53.19
2022-08-21T09:44:46.436Z,52.09
2022-08-21T09:45:46.399Z,50.90
2022-08-21T09:46:46.396Z,49.90
2022-08-21T09:47:46.367Z,50.00
2022-08-21T09:48:46.375Z,49.70
2022-08-21T09:49:46.367Z,49.50
2022-08-21T09:50:46.355Z,48.40
2022-08-21T09:51:46.318Z,49.00
2022-08-21T09:52:46.317Z,50.90
2022-08-21T09:53:46.309Z,50.30
2022-08-21T09:54:46.313Z,50.87
2022-08-21T09:55:46.269Z,50.77
2022-08-21T09:56:46.266Z,49.77
2022-08-21T09:57:46.784Z,50.07
2022-08-21T09:58:46.248Z,49.87
2022-08-21T09:59:46.207Z,49.65
2022-08-21T10:00:46.258Z,48.35
2022-08-21T10:01:46.188Z,47.75
2022-08-21T10:02:46.180Z,48.95
2022-08-21T10:03:46.219Z,47.66
2022-08-21T10:04:46.159Z,48.05
2022-08-21T10:05:46.139Z,47.96
2022-08-21T10:06:46.129Z,49.13
2022-08-21T10:07:46.131Z,48.03
2022-08-21T10:08:46.128Z,47.03
2022-08-21T10:09:46.092Z,48.23
2022-08-21T10:10:46.071Z,48.83
2022-08-21T10:11:46.051Z,48.43
2022-08-21T10:12:46.040Z,49.13
2022-08-21T10:13:46.050Z,48.01
2022-08-21T10:14:46.027Z,47.51
2022-08-21T10:15:46.010Z,48.21
2022-08-21T10:16:45.999Z,48.61
2022-08-21T10:17:45.982Z,48.21
2022-08-21T10:18:45.986Z,48.71
2022-08-21T10:19:45.952Z,47.51
2022-08-21T10:20:45.945Z,47.41
2022-08-21T10:21:45.924Z,47.79
2022-08-21T10:22:45.921Z,47.59
2022-08-21T10:23:45.922Z,47.49
2022-08-21T10:24:45.890Z,47.59
2022-08-21T10:25:52.054Z,48.38
2022-08-21T10:26:46.871Z,48.79
2022-08-21T10:27:45.840Z,48.38
2022-08-21T10:28:45.872Z,49.18
2022-08-21T10:29:45.813Z,48.38
2022-08-21T10:30:45.811Z,47.49
2022-08-21T10:31:45.794Z,47.29
2022-08-21T10:32:45.794Z,48.38
2022-08-21T10:33:45.785Z,47.69
2022-08-21T10:34:45.764Z,47.89
2022-08-21T10:35:45.752Z,46.59
2022-08-21T10:36:45.736Z,46.59
2022-08-21T10:37:45.713Z,47.99
2022-08-21T10:38:58.770Z,48.08
2022-08-21T10:39:46.714Z,47.59
2022-08-21T10:40:45.668Z,46.59
2022-08-21T10:41:45.666Z,47.09
2022-08-21T10:42:45.663Z,46.87
2022-08-21T10:43:45.656Z,46.17
2022-08-21T10:44:45.625Z,46.08
2022-08-21T10:45:45.616Z,45.67
2022-08-21T10:46:45.605Z,44.78
2022-08-21T10:47:45.584Z,45.57
2022-08-21T10:48:45.575Z,45.95
2022-08-21T10:49:45.574Z,46.05
2022-08-21T10:50:45.536Z,47.14
2022-08-21T10:51:45.526Z,47.25
2022-08-21T10:52:45.526Z,45.95
2022-08-21T10:53:45.496Z,45.95
2022-08-21T10:54:45.517Z,46.65
2022-08-21T10:55:45.477Z,46.72
2022-08-21T10:56:45.466Z,45.14
2022-08-21T10:57:45.449Z,44.34
2022-08-21T10:58:45.438Z,43.94
2022-08-21T10:59:45.447Z,43.44
2022-08-21T11:00:45.515Z,44.04
2022-08-21T11:01:45.392Z,43.64
2022-08-21T11:02:45.397Z,42.63
2022-08-21T11:03:45.369Z,43.52
2022-08-21T11:04:49.011Z,43.42
2022-08-21T11:05:50.147Z,43.02
2022-08-21T11:06:46.336Z,42.71
2022-08-21T11:07:45.336Z,41.91
2022-08-21T11:08:45.299Z,41.02
2022-08-21T11:09:45.310Z,42.01
2022-08-21T11:10:57.987Z,42.91
2022-08-21T11:11:59.482Z,42.71
2022-08-21T11:12:46.270Z,42.01
2022-08-21T11:13:45.241Z,41.12
2022-08-21T11:14:49.929Z,41.31
2022-08-21T11:15:46.210Z,42.51
2022-08-21T11:16:45.206Z,43.70
2022-08-21T11:17:45.181Z,43.70
2022-08-21T11:18:45.171Z,44.20
2022-08-21T11:19:45.172Z,43.38
2022-08-21T11:20:45.152Z,42.49
2022-08-21T11:21:45.130Z,42.69
2022-08-21T11:22:45.122Z,41.00
2022-08-21T11:23:45.112Z,40.70
2022-08-21T11:24:45.236Z,41.30
2022-08-21T11:25:45.107Z,40.20
2022-08-21T11:26:45.064Z,39.71
2022-08-21T11:27:45.045Z,41.22
2022-08-21T11:28:45.046Z,41.50
2022-08-21T11:29:45.079Z,41.20
2022-08-21T11:30:45.022Z,41.50
2022-08-21T11:31:45.003Z,41.99
2022-08-21T11:32:45.020Z,41.39
2022-08-21T11:33:44.970Z,41.79
2022-08-21T11:34:44.973Z,41.58
2022-08-21T11:35:44.965Z,41.08
2022-08-21T11:36:47.232Z,40.98
2022-08-21T11:37:44.940Z,40.68
2022-08-21T11:38:44.945Z,40.58
2022-08-21T11:39:44.922Z,41.28
2022-08-21T11:40:44.894Z,41.97
2022-08-21T11:41:44.854Z,40.28
2022-08-21T11:42:44.855Z,40.78
2022-08-21T11:43:44.831Z,41.58
2022-08-21T11:44:44.855Z,40.58
2022-08-21T11:45:44.815Z,41.28
2022-08-21T11:46:44.805Z,41.28
2022-08-21T11:47:44.776Z,41.58
2022-08-21T11:48:44.774Z,42.07
2022-08-21T11:49:44.775Z,42.37
2022-08-21T11:50:44.765Z,41.38
2022-08-21T11:51:44.736Z,40.47
2022-08-21T11:52:44.719Z,40.96
2022-08-21T11:53:44.707Z,41.26
2022-08-21T11:54:44.709Z,41.16
2022-08-21T11:55:44.687Z,39.07
2022-08-21T11:56:44.675Z,39.97
2022-08-21T11:57:44.660Z,40.96
2022-08-21T11:58:44.637Z,40.96
2022-08-21T11:59:44.647Z,38.98
2022-08-21T12:00:44.611Z,39.97
2022-08-21T12:01:44.647Z,41.16
2022-08-21T12:02:44.588Z,40.56
2022-08-21T12:03:44.571Z,39.06
2022-08-21T12:04:44.588Z,40.34
2022-08-21T12:05:44.553Z,38.66
2022-08-21T12:06:44.547Z,39.75
2022-08-21T12:07:44.518Z,39.25
2022-08-21T12:08:44.516Z,40.03
2022-08-21T12:09:44.519Z,38.64
2022-08-21T12:10:44.500Z,38.05
2022-08-21T12:11:44.469Z,36.96
2022-08-21T12:12:44.468Z,38.05
2022-08-21T12:13:44.452Z,38.34
2022-08-21T12:14:44.460Z,37.95
2022-08-21T12:15:44.418Z,37.93
2022-08-21T12:16:44.410Z,37.83
2022-08-21T12:17:44.410Z,37.34
2022-08-21T12:18:44.380Z,37.83
2022-08-21T12:19:44.381Z,38.42
2022-08-21T12:20:50.196Z,39.10
2022-08-21T12:21:45.342Z,39.89
2022-08-21T12:22:44.333Z,37.93
2022-08-21T12:23:45.319Z,38.32
2022-08-21T12:24:44.333Z,39.34
2022-08-21T12:25:44.289Z,39.45
2022-08-21T12:26:44.289Z,40.34
2022-08-21T12:27:44.272Z,40.52
2022-08-21T12:28:44.253Z,40.74
2022-08-21T12:29:44.254Z,40.33
2022-08-21T12:30:44.325Z,39.34
2022-08-21T12:31:44.211Z,38.85
2022-08-21T12:32:44.235Z,38.85
2022-08-21T12:33:44.194Z,38.64
2022-08-21T12:34:44.196Z,38.54
2022-08-21T12:35:44.160Z,38.94
2022-08-21T12:36:44.153Z,39.14
2022-08-21T12:37:44.135Z,38.84
2022-08-21T12:38:44.133Z,40.03
2022-08-21T12:39:44.165Z,39.23
2022-08-21T12:40:44.103Z,39.53
2022-08-21T12:41:44.095Z,39.23
2022-08-21T12:42:44.073Z,38.82
2022-08-21T12:43:44.071Z,38.34
2022-08-21T12:44:44.063Z,39.22
2022-08-21T12:45:44.049Z,38.15
2022-08-21T12:46:44.033Z,39.31
2022-08-21T12:47:44.015Z,38.62
2022-08-21T12:48:44.005Z,38.62
2022-08-21T12:49:44.064Z,39.61
2022-08-21T12:50:43.956Z,40.29
2022-08-21T12:51:43.965Z,40.58
2022-08-21T12:52:43.946Z,39.79